createdAt,value
2023-04-21T00:00:49.369Z,4.50
2023-04-21T00:04:01.107Z,4.45
2023-04-21T00:07:07.068Z,4.43
2023-04-21T00:10:12.777Z,5.03
2023-04-21T00:13:18.051Z,4.25
2023-04-21T00:16:26.025Z,4.47
2023-04-21T00:19:31.931Z,4.85
2023-04-21T00:22:38.151Z,4.55
2023-04-21T00:25:44.984Z,3.80
2023-04-21T00:28:49.926Z,4.80
2023-04-21T00:31:59.340Z,5.35
2023-04-21T00:35:06.312Z,3.55
2023-04-21T00:38:14.132Z,4.13
2023-04-21T00:41:19.121Z,4.45
2023-04-21T00:44:24.460Z,4.53
2023-04-21T00:47:32.079Z,4.22
2023-04-21T00:50:38.230Z,4.13
2023-04-21T00:53:43.280Z,5.45
2023-04-21T00:56:48.744Z,4.30
2023-04-21T00:59:53.807Z,3.85
2023-04-21T01:03:03.338Z,3.92
2023-04-21T01:06:10.554Z,3.78
2023-04-21T01:09:17.764Z,4.32
2023-04-21T01:12:23.015Z,5.07
2023-04-21T01:15:31.252Z,4.07
2023-04-21T01:18:42.553Z,3.58
2023-04-21T01:21:50.727Z,3.85
2023-04-21T01:24:55.688Z,4.05
2023-04-21T01:28:01.591Z,3.85
2023-04-21T01:31:07.282Z,4.13
2023-04-21T01:34:14.443Z,3.63
2023-04-21T01:37:23.352Z,3.83
2023-04-21T01:40:31.249Z,3.90
2023-04-21T01:43:37.417Z,4.53
2023-04-21T01:46:42.889Z,4.03
2023-04-21T01:49:47.903Z,4.10
2023-04-21T01:52:56.453Z,5.32
2023-04-21T01:56:01.448Z,4.25
2023-04-21T01:59:07.141Z,4.97
2023-04-21T02:02:12.366Z,4.85
2023-04-21T02:05:21.352Z,4.43
2023-04-21T02:08:31.325Z,4.57
2023-04-21T02:11:36.911Z,4.47
2023-04-21T02:14:41.937Z,3.88
2023-04-21T02:17:48.606Z,5.20
2023-04-21T02:20:53.689Z,4.28
2023-04-21T02:24:01.764Z,4.30
2023-04-21T02:27:11.340Z,4.40
2023-04-21T02:30:16.765Z,4.18
2023-04-21T02:33:21.803Z,4.28
2023-04-21T02:36:28.389Z,3.83
2023-04-21T02:39:36.030Z,4.75
2023-04-21T02:42:41.484Z,4.35
2023-04-21T02:45:46.477Z,4.38
2023-04-21T02:48:51.993Z,4.13
2023-04-21T02:51:58.916Z,4.28
2023-04-21T02:55:07.081Z,3.72
2023-04-21T02:58:12.681Z,4.32
2023-04-21T03:01:18.495Z,4.75
2023-04-21T03:04:24.632Z,4.25
2023-04-21T03:07:30.131Z,5.65
2023-04-21T03:10:42.583Z,4.28
2023-04-21T03:13:50.772Z,4.75
2023-04-21T03:16:55.969Z,4.43
2023-04-21T03:20:01.422Z,5.72
2023-04-21T03:23:09.917Z,5.28
2023-04-21T03:26:19.960Z,5.05
2023-04-21T03:29:25.242Z,4.20
2023-04-21T03:32:30.894Z,5.50
2023-04-21T03:35:36.433Z,5.95
2023-04-21T03:38:42.073Z,5.20
2023-04-21T03:41:52.367Z,4.63
2023-04-21T03:44:57.688Z,4.35
2023-04-21T03:48:03.988Z,4.00
2023-04-21T03:51:09.482Z,4.72
2023-04-21T03:54:16.335Z,4.03
2023-04-21T03:57:24.425Z,4.20
2023-04-21T04:00:35.330Z,4.05
2023-04-21T04:03:40.873Z,4.25
2023-04-21T04:06:48.039Z,4.10
2023-04-21T04:09:55.018Z,3.78
2023-04-21T04:13:03.142Z,4.47
2023-04-21T04:16:12.559Z,4.10
2023-04-21T04:19:21.819Z,4.75
2023-04-21T04:22:27.428Z,4.45
2023-04-21T04:25:33.565Z,6.38
2023-04-21T04:28:41.496Z,4.70
2023-04-21T04:31:46.498Z,4.45
2023-04-21T04:34:52.545Z,4.32
2023-04-21T04:37:58.118Z,4.63
2023-04-21T04:41:04.940Z,4.47
2023-04-21T04:44:12.568Z,4.90
2023-04-21T04:47:20.993Z,5.00
2023-04-21T04:50:26.049Z,5.40
2023-04-21T04:53:31.609Z,4.90
2023-04-21T04:56:36.834Z,4.65
2023-04-21T04:59:45.029Z,5.07
2023-04-21T05:02:50.125Z,4.80
2023-04-21T05:05:58.010Z,4.57
2023-04-21T05:09:04.255Z,5.03
2023-04-21T05:12:09.644Z,4.30
2023-04-21T05:15:17.324Z,5.18
2023-04-21T05:18:22.751Z,4.53
2023-04-21T05:21:28.938Z,4.18
2023-04-21T05:24:36.674Z,4.43
2023-04-21T05:27:41.777Z,5.07
2023-04-21T05:30:49.816Z,4.30
2023-04-21T05:33:54.801Z,5.38
2023-04-21T05:37:00.179Z,4.82
2023-04-21T05:40:05.173Z,5.13
2023-04-21T05:43:10.534Z,5.00
2023-04-21T05:46:18.196Z,5.03
2023-04-21T05:49:23.601Z,4.63
2023-04-21T05:52:29.053Z,5.00
2023-04-21T05:55:34.397Z,4.82
2023-04-21T05:58:39.419Z,4.60
2023-04-21T06:01:48.782Z,4.63
2023-04-21T06:04:54.240Z,7.43
2023-04-21T06:07:59.767Z,10.00
2023-04-21T06:11:04.807Z,6.75
2023-04-21T06:14:11.791Z,4.45
2023-04-21T06:17:21.936Z,4.75
2023-04-21T06:20:28.756Z,4.20
2023-04-21T06:23:33.746Z,4.70
2023-04-21T06:26:39.360Z,4.25
2023-04-21T06:29:45.154Z,4.40
2023-04-21T06:32:53.130Z,4.88
2023-04-21T06:35:58.133Z,4.30
2023-04-21T06:39:05.020Z,4.00
2023-04-21T06:42:10.080Z,4.03
2023-04-21T06:45:15.408Z,4.10
2023-04-21T06:48:24.662Z,4.63
2023-04-21T06:51:30.008Z,4.22
2023-04-21T06:54:34.986Z,4.30
2023-04-21T06:57:40.812Z,4.47
2023-04-21T07:00:45.821Z,4.70
2023-04-21T07:03:54.000Z,3.88
2023-04-21T07:07:01.166Z,4.57
2023-04-21T07:10:08.920Z,4.80
2023-04-21T07:13:13.987Z,5.50
2023-04-21T07:16:19.324Z,4.35
2023-04-21T07:19:27.233Z,5.43
2023-04-21T07:22:32.609Z,4.97
2023-04-21T07:25:37.661Z,5.28
2023-04-21T07:28:43.447Z,4.82
2023-04-21T07:31:48.865Z,5.07
2023-04-21T07:34:56.805Z,4.50
2023-04-21T07:38:01.781Z,4.28
2023-04-21T07:41:07.271Z,4.88
2023-04-21T07:44:12.262Z,4.68
2023-04-21T07:47:20.348Z,5.22
2023-04-21T07:50:29.070Z,4.10
2023-04-21T07:53:34.492Z,5.30
2023-04-21T07:56:42.772Z,4.70
2023-04-21T07:59:48.108Z,4.43
2023-04-21T08:02:53.175Z,5.40
2023-04-21T08:06:01.457Z,3.90
2023-04-21T08:09:07.730Z,4.60
2023-04-21T08:12:13.064Z,5.97
2023-04-21T08:15:18.075Z,4.30
2023-04-21T08:18:23.847Z,4.45
2023-04-21T08:21:32.050Z,4.85
2023-04-21T08:24:37.565Z,4.38
2023-04-21T08:27:44.099Z,3.97
2023-04-21T08:30:49.450Z,4.40
2023-04-21T08:34:01.859Z,4.10
2023-04-21T08:37:11.212Z,5.05
2023-04-21T08:40:17.533Z,4.80
2023-04-21T08:43:24.631Z,4.38
2023-04-21T08:46:30.910Z,4.43
2023-04-21T08:49:36.863Z,4.93
2023-04-21T08:52:54.955Z,4.93
2023-04-21T08:56:10.913Z,4.97
2023-04-21T08:59:16.792Z,4.78
2023-04-21T09:02:22.494Z,4.53
2023-04-21T09:05:28.421Z,4.15
2023-04-21T09:08:36.904Z,4.30
2023-04-21T09:11:41.882Z,4.65
2023-04-21T09:14:47.212Z,6.57
2023-04-21T09:17:57.786Z,4.75
2023-04-21T09:21:12.937Z,7.93
2023-04-21T09:24:20.676Z,4.18
2023-04-21T09:27:27.987Z,4.93
2023-04-21T09:30:33.047Z,4.63
2023-04-21T09:33:49.749Z,4.40
2023-04-21T09:37:02.817Z,5.25
2023-04-21T09:40:11.379Z,4.97
2023-04-21T09:43:16.488Z,4.13
2023-04-21T09:46:22.749Z,4.40
2023-04-21T09:49:29.047Z,5.72
2023-04-21T09:52:36.784Z,4.40
2023-04-21T09:55:44.858Z,4.55
2023-04-21T09:58:51.310Z,5.07
2023-04-21T10:01:56.990Z,5.47
2023-04-21T10:05:02.646Z,5.13
2023-04-21T10:08:08.450Z,4.40
2023-04-21T10:11:16.596Z,4.32
2023-04-21T10:14:21.883Z,4.50
2023-04-21T10:17:28.328Z,4.20
2023-04-21T10:20:35.385Z,4.57
2023-04-21T10:23:41.707Z,4.45
2023-04-21T10:26:49.240Z,4.72
2023-04-21T10:29:57.068Z,5.15
2023-04-21T10:33:06.787Z,3.38
2023-04-21T10:36:15.940Z,4.72
2023-04-21T10:39:31.582Z,8.70
2023-04-21T10:42:40.128Z,7.22
2023-04-21T10:45:48.710Z,5.10
2023-04-21T10:48:55.691Z,6.40
2023-04-21T10:52:12.501Z,9.25
2023-04-21T10:55:18.877Z,3.50
2023-04-21T10:58:28.236Z,11.57
2023-04-21T11:01:34.416Z,3.85
2023-04-21T11:04:49.306Z,6.97
2023-04-21T11:07:55.273Z,4.13
2023-04-21T11:11:02.297Z,4.32
2023-04-21T11:14:10.470Z,5.45
2023-04-21T11:17:15.838Z,5.00
2023-04-21T11:20:22.641Z,4.97
2023-04-21T11:23:27.635Z,4.93
2023-04-21T11:26:33.857Z,2.90
2023-04-21T11:29:41.662Z,3.47
2023-04-21T11:32:47.187Z,2.15
2023-04-21T11:35:58.079Z,2.80
2023-04-21T11:39:12.785Z,3.40
2023-04-21T11:42:23.573Z,2.22
2023-04-21T11:45:31.934Z,2.55
2023-04-21T11:48:39.887Z,2.50
2023-04-21T11:51:47.202Z,2.30
2023-04-21T11:54:54.395Z,2.42
2023-04-21T11:58:00.878Z,2.17
2023-04-21T12:01:13.146Z,2.45
2023-04-21T12:04:20.004Z,2.13
2023-04-21T12:07:26.019Z,2.80
2023-04-21T12:10:32.161Z,2.60
2023-04-21T12:13:37.243Z,3.30
2023-04-21T12:16:46.405Z,2.55
2023-04-21T12:19:51.581Z,2.47
2023-04-21T12:22:56.996Z,2.60
2023-04-21T12:26:02.125Z,2.05
2023-04-21T12:29:07.672Z,2.45
2023-04-21T12:32:15.751Z,2.33
2023-04-21T12:35:21.099Z,2.17
2023-04-21T12:38:26.730Z,2.28
2023-04-21T12:41:32.479Z,1.90
2023-04-21T12:44:37.445Z,2.35
2023-04-21T12:47:47.078Z,2.42
2023-04-21T12:50:52.457Z,1.85
2023-04-21T12:53:57.796Z,2.03
2023-04-21T12:57:02.797Z,2.22
2023-04-21T13:00:09.159Z,1.90
2023-04-21T13:03:17.389Z,2.22
2023-04-21T13:06:22.906Z,2.05
2023-04-21T13:09:27.997Z,3.30
2023-04-21T13:12:33.507Z,2.50
2023-04-21T13:15:38.765Z,2.65
2023-04-21T13:18:48.166Z,2.30
2023-04-21T13:21:54.868Z,2.40
2023-04-21T13:25:00.291Z,2.10
2023-04-21T13:28:05.894Z,2.83
2023-04-21T13:31:11.346Z,2.15
2023-04-21T13:34:19.007Z,2.38
2023-04-21T13:37:24.485Z,2.28
2023-04-21T13:40:29.674Z,2.45
2023-04-21T13:43:35.103Z,2.50
2023-04-21T13:46:41.135Z,2.53
2023-04-21T13:49:52.465Z,2.50
2023-04-21T13:52:57.499Z,2.10
2023-04-21T13:56:03.088Z,2.45
2023-04-21T13:59:11.104Z,2.30
2023-04-21T14:02:17.650Z,2.53
2023-04-21T14:05:25.871Z,2.00
2023-04-21T14:08:31.409Z,2.20
2023-04-21T14:11:36.452Z,2.38
2023-04-21T14:14:42.106Z,1.90
2023-04-21T14:17:47.521Z,2.38
2023-04-21T14:20:55.609Z,2.08
2023-04-21T14:24:01.159Z,2.05
2023-04-21T14:27:06.998Z,2.60
2023-04-21T14:30:12.688Z,2.42
2023-04-21T14:33:18.684Z,2.30
2023-04-21T14:36:28.168Z,2.20
2023-04-21T14:39:33.829Z,2.17
2023-04-21T14:42:41.736Z,2.08
2023-04-21T14:45:47.788Z,2.17
2023-04-21T14:48:53.563Z,2.10
2023-04-21T14:52:01.631Z,1.92
2023-04-21T14:55:07.561Z,2.00
2023-04-21T14:58:12.963Z,2.30
2023-04-21T15:01:18.184Z,2.15
2023-04-21T15:04:24.328Z,2.03
2023-04-21T15:07:32.960Z,2.28
2023-04-21T15:10:40.123Z,2.70
2023-04-21T15:13:48.224Z,2.13
2023-04-21T15:16:53.858Z,2.22
2023-04-21T15:20:01.494Z,1.67
2023-04-21T15:23:12.285Z,1.95
2023-04-21T15:26:17.529Z,2.35
2023-04-21T15:29:23.371Z,2.05
2023-04-21T15:32:28.627Z,1.95
2023-04-21T15:35:34.267Z,2.38
2023-04-21T15:38:41.942Z,1.63
2023-04-21T15:41:48.565Z,2.00
2023-04-21T15:44:56.123Z,2.08
2023-04-21T15:48:01.615Z,1.90
2023-04-21T15:51:09.612Z,1.83
2023-04-21T15:54:21.846Z,2.08
2023-04-21T15:57:28.501Z,2.00
2023-04-21T16:00:35.561Z,2.58
2023-04-21T16:03:41.754Z,2.15
2023-04-21T16:06:47.405Z,2.00
2023-04-21T16:09:55.336Z,2.65
2023-04-21T16:13:00.952Z,2.50
2023-04-21T16:16:06.000Z,1.98
2023-04-21T16:19:12.598Z,1.80
2023-04-21T16:22:20.504Z,1.90
2023-04-21T16:25:28.870Z,1.70
2023-04-21T16:28:34.972Z,1.73
2023-04-21T16:31:41.596Z,1.95
2023-04-21T16:34:48.560Z,1.80
2023-04-21T16:37:57.036Z,2.10
2023-04-21T16:41:05.438Z,1.70
2023-04-21T16:44:12.061Z,1.80
2023-04-21T16:47:17.138Z,1.92
2023-04-21T16:50:23.786Z,1.88
2023-04-21T16:53:33.801Z,1.67
2023-04-21T16:56:42.147Z,1.30
2023-04-21T16:59:50.411Z,1.45
2023-04-21T17:02:58.131Z,1.83
2023-04-21T17:06:05.183Z,1.67
2023-04-21T17:09:10.711Z,1.40
2023-04-21T17:12:18.657Z,1.23
2023-04-21T17:15:26.775Z,1.80
2023-04-21T17:18:32.185Z,1.67
2023-04-21T17:21:38.101Z,1.52
2023-04-21T17:24:53.144Z,1.38
2023-04-21T17:28:02.101Z,1.50
2023-04-21T17:31:15.694Z,1.77
2023-04-21T17:34:27.467Z,1.35
2023-04-21T17:37:34.163Z,1.52
2023-04-21T17:40:39.542Z,1.88
2023-04-21T17:43:47.546Z,1.40
2023-04-21T17:46:53.214Z,1.60
2023-04-21T17:50:00.288Z,1.73
2023-04-21T17:53:06.073Z,2.55
2023-04-21T17:56:11.757Z,1.77
2023-04-21T17:59:20.194Z,1.58
2023-04-21T18:02:30.868Z,1.80
2023-04-21T18:05:36.670Z,1.60
2023-04-21T18:08:41.722Z,1.58
2023-04-21T18:11:48.610Z,2.05
2023-04-21T18:14:56.648Z,1.40
2023-04-21T18:18:04.742Z,1.65
2023-04-21T18:21:12.268Z,1.73
2023-04-21T18:24:18.242Z,1.60
2023-04-21T18:30:42.412Z,1.73
2023-04-21T18:33:49.653Z,1.58
2023-04-21T18:36:59.353Z,1.80
2023-04-21T18:40:06.066Z,1.80
2023-04-21T18:43:12.806Z,2.75
2023-04-21T18:46:20.470Z,1.85
2023-04-21T18:49:26.690Z,2.38
2023-04-21T18:52:32.835Z,2.10
2023-04-21T18:55:40.571Z,1.90
2023-04-21T18:58:47.732Z,2.20
2023-04-21T19:01:56.855Z,2.08
2023-04-21T19:05:03.287Z,2.42
2023-04-21T19:08:09.385Z,2.28
2023-04-21T19:11:18.796Z,2.63
2023-04-21T19:14:34.635Z,2.72
2023-04-21T19:17:48.196Z,3.33
2023-04-21T19:20:55.826Z,2.97
2023-04-21T19:24:00.909Z,2.90
2023-04-21T19:27:07.343Z,3.35
2023-04-21T19:30:13.065Z,3.58
2023-04-21T19:33:21.272Z,14.88
2023-04-21T19:36:28.782Z,18.17
2023-04-21T19:39:35.342Z,10.40
2023-04-21T19:42:42.629Z,4.30
2023-04-21T19:45:48.061Z,3.38
2023-04-21T19:48:59.734Z,3.90
2023-04-21T19:52:05.700Z,9.73
2023-04-21T19:55:13.452Z,12.02
2023-04-21T19:58:28.569Z,22.70
2023-04-21T20:01:45.136Z,21.02
2023-04-21T20:04:56.671Z,9.38
2023-04-21T20:08:02.061Z,8.98
2023-04-21T20:11:07.598Z,8.80
2023-04-21T20:14:16.878Z,16.23
2023-04-21T20:17:25.117Z,13.55
2023-04-21T20:20:34.797Z,9.45
2023-04-21T20:23:41.194Z,7.85
2023-04-21T20:26:46.259Z,6.32
2023-04-21T20:29:51.745Z,8.35
2023-04-21T20:32:57.070Z,8.10
2023-04-21T20:36:07.541Z,8.57
2023-04-21T20:39:14.520Z,9.48
2023-04-21T20:42:24.110Z,5.60
2023-04-21T20:45:29.889Z,4.60
2023-04-21T20:48:35.734Z,4.43
2023-04-21T20:51:46.200Z,5.45
2023-04-21T20:54:51.995Z,4.38
2023-04-21T20:57:57.051Z,5.10
2023-04-21T21:01:02.992Z,10.98
2023-04-21T21:04:09.729Z,14.88
2023-04-21T21:07:20.738Z,44.35
2023-04-21T21:10:27.711Z,21.80
2023-04-21T21:13:33.131Z,9.93
2023-04-21T21:16:42.974Z,8.75
2023-04-21T21:19:49.589Z,6.03
2023-04-21T21:22:57.592Z,4.82
2023-04-21T21:26:03.398Z,4.75
2023-04-21T21:29:10.433Z,4.75
2023-04-21T21:32:15.996Z,4.32
2023-04-21T21:35:21.273Z,4.35
2023-04-21T21:38:29.751Z,5.15
2023-04-21T21:41:35.269Z,6.40
2023-04-21T21:44:41.890Z,4.57
2023-04-21T21:47:46.972Z,4.45
2023-04-21T21:50:52.444Z,4.15
2023-04-21T21:54:00.091Z,4.75
2023-04-21T21:57:05.548Z,4.60
2023-04-21T22:00:13.506Z,4.70
2023-04-21T22:03:19.016Z,4.20
2023-04-21T22:06:26.986Z,4.10
2023-04-21T22:09:37.552Z,3.83
2023-04-21T22:12:42.782Z,3.60
2023-04-21T22:15:48.524Z,3.63
2023-04-21T22:18:55.635Z,3.78
2023-04-21T22:22:01.055Z,5.65
2023-04-21T22:25:11.732Z,5.57
2023-04-21T22:28:17.289Z,5.10
2023-04-21T22:31:22.592Z,4.30
2023-04-21T22:34:28.148Z,3.88
2023-04-21T22:37:33.150Z,3.38
2023-04-21T22:40:41.818Z,3.33
2023-04-21T22:43:46.875Z,3.10
2023-04-21T22:46:52.682Z,2.97
2023-04-21T22:49:57.715Z,3.10
2023-04-21T22:53:03.143Z,3.05
2023-04-21T22:56:13.947Z,3.15
2023-04-21T22:59:19.706Z,3.42
2023-04-21T23:02:25.838Z,3.58
2023-04-21T23:05:31.949Z,3.30
2023-04-21T23:08:37.296Z,3.80
2023-04-21T23:11:46.389Z,3.63
2023-04-21T23:14:51.484Z,3.75
2023-04-21T23:17:57.951Z,4.35
2023-04-21T23:21:05.229Z,3.75
2023-04-21T23:24:11.227Z,3.33
2023-04-21T23:27:19.710Z,3.28
2023-04-21T23:30:25.046Z,3.45
2023-04-21T23:33:30.036Z,3.20
2023-04-21T23:36:39.894Z,3.72
2023-04-21T23:39:46.310Z,3.13
2023-04-21T23:42:58.569Z,3.17
2023-04-21T23:46:03.884Z,3.73
2023-04-21T23:49:12.095Z,3.90
2023-04-21T23:52:17.497Z,4.07
2023-04-21T23:55:24.357Z,3.00
2023-04-21T23:58:34.072Z,3.70
